Time;durP1;ratioP1;P1;durP2;ratioP2;P2;SDS_P1;SDS_P2;PMS_P1;PMS_P2;Temp;Humidity;BMP_temperature;BMP_pressure;BME280_temperature;BME280_humidity;BME280_pressure;Samples;Min_cycle;Max_cycle;Signal;HPM_P1;HPM_P2
2021/01/12 00:02:10;;;;;;;27.35;10.80;;;-3.20;99.90;;;;;;5059850;28;20116;-76
2021/01/12 00:04:39;;;;;;;31.00;11.45;;;-3.20;99.90;;;;;;5050801;28;20025;-77
2021/01/12 00:07:05;;;;;;;31.63;11.30;;;-3.20;99.90;;;;;;5061832;28;20052;-76
2021/01/12 00:09:31;;;;;;;26.95;11.48;;;-3.10;99.90;;;;;;5069536;28;20122;-77
2021/01/12 00:11:57;;;;;;;30.42;11.65;;;-3.10;99.90;;;;;;5070488;28;20040;-77
2021/01/12 00:14:32;;;;;;;23.20;10.73;;;-3.10;99.90;;;;;;5053671;28;20041;-77
2021/01/12 00:17:03;;;;;;;25.05;10.25;;;-3.10;99.90;;;;;;5069582;28;20495;-77
2021/01/12 00:19:29;;;;;;;26.75;10.48;;;-3.10;99.90;;;;;;5070426;28;20616;-77
2021/01/12 00:21:56;;;;;;;27.45;10.95;;;-3.10;99.90;;;;;;5071479;28;20482;-77
2021/01/12 00:24:22;;;;;;;25.05;9.65;;;-3.10;99.90;;;;;;5071471;28;20039;-77
2021/01/12 00:26:48;;;;;;;26.40;11.15;;;-3.10;99.90;;;;;;5070966;28;20044;-77
2021/01/12 00:29:14;;;;;;;22.90;10.00;;;-3.20;99.90;;;;;;5052305;28;20120;-76
2021/01/12 00:31:40;;;;;;;24.33;10.23;;;-3.10;99.90;;;;;;5050480;28;20131;-77
2021/01/12 00:34:06;;;;;;;26.95;10.57;;;-3.10;99.90;;;;;;5051395;28;20033;-77
2021/01/12 00:36:37;;;;;;;24.80;10.65;;;-3.10;99.90;;;;;;5067751;28;20033;-77
2021/01/12 00:39:04;;;;;;;27.50;9.50;;;-3.10;99.90;;;;;;5070511;28;20037;-77
2021/01/12 00:41:29;;;;;;;21.25;9.70;;;-3.10;99.90;;;;;;5070043;28;20033;-76
2021/01/12 00:43:55;;;;;;;21.95;10.40;;;-3.10;99.90;;;;;;5070000;28;20102;-77
2021/01/12 00:46:21;;;;;;;25.02;10.55;;;-3.10;99.90;;;;;;5084100;28;20031;-77
2021/01/12 00:48:46;;;;;;;25.08;10.10;;;-3.10;99.90;;;;;;5089382;28;20093;-77
2021/01/12 00:51:12;;;;;;;22.48;8.85;;;-3.10;99.90;;;;;;5089484;28;20035;-77
2021/01/12 00:53:38;;;;;;;26.17;10.32;;;-3.10;99.90;;;;;;5091095;28;20028;-77
2021/01/12 00:56:14;;;;;;;25.70;10.30;;;-3.00;99.90;;;;;;5090887;28;20032;-77
2021/01/12 00:58:39;;;;;;;20.50;9.45;;;-3.00;99.90;;;;;;5090194;28;20027;-77
2021/01/12 01:01:05;;;;;;;23.75;9.77;;;-3.00;99.90;;;;;;5067595;28;20558;-77
2021/01/12 01:03:31;;;;;;;33.45;11.60;;;-2.90;99.90;;;;;;5065444;28;20111;-77
2021/01/12 01:05:57;;;;;;;32.67;11.23;;;-2.90;99.90;;;;;;5069178;28;20546;-77
2021/01/12 01:08:24;;;;;;;29.65;11.68;;;-2.90;99.90;;;;;;5069907;28;20024;-77
2021/01/12 01:10:49;;;;;;;28.13;10.63;;;-2.90;99.90;;;;;;5052018;28;20094;-77
2021/01/12 01:13:15;;;;;;;28.90;10.70;;;-2.90;99.90;;;;;;5052685;28;20040;-77
2021/01/12 01:15:41;;;;;;;31.27;11.98;;;-2.90;99.90;;;;;;5069290;28;20060;-77
2021/01/12 01:18:07;;;;;;;25.75;10.23;;;-2.90;99.90;;;;;;5068609;28;20123;-77
2021/01/12 01:20:33;;;;;;;26.08;10.70;;;-2.90;99.90;;;;;;5068420;28;20033;-77
2021/01/12 01:22:58;;;;;;;26.23;11.02;;;-2.80;99.90;;;;;;5070202;28;20033;-77
2021/01/12 01:25:25;;;;;;;24.33;9.98;;;-2.80;99.90;;;;;;5068476;28;20178;-77
2021/01/12 01:27:50;;;;;;;23.50;10.15;;;-2.80;99.90;;;;;;5063266;28;20479;-77
2021/01/12 01:30:17;;;;;;;26.92;10.82;;;-2.80;99.90;;;;;;5049196;28;20040;-78
2021/01/12 01:32:44;;;;;;;25.45;10.30;;;-2.70;99.90;;;;;;5050214;28;20041;-77
2021/01/12 01:35:10;;;;;;;33.78;11.43;;;-2.70;99.90;;;;;;5056585;28;20427;-76
2021/01/12 01:37:36;;;;;;;24.00;10.02;;;-2.70;99.90;;;;;;5068817;28;20144;-77
2021/01/12 01:40:05;;;;;;;25.75;10.68;;;-2.70;99.90;;;;;;5067671;28;20037;-77
2021/01/12 01:42:31;;;;;;;26.75;10.70;;;-2.70;99.90;;;;;;5068893;28;20093;-77
2021/01/12 01:44:58;;;;;;;29.42;12.02;;;-2.60;99.90;;;;;;5068437;28;20020;-77
2021/01/12 01:47:24;;;;;;;18.92;10.02;;;-2.60;99.90;;;;;;5052271;28;20036;-77
2021/01/12 01:49:50;;;;;;;21.95;9.35;;;-2.60;99.90;;;;;;5068435;28;20036;-78
2021/01/12 01:52:17;;;;;;;23.67;10.07;;;-2.60;99.90;;;;;;5068493;28;20086;-77
2021/01/12 01:54:43;;;;;;;22.00;10.07;;;-2.60;99.90;;;;;;5069744;28;20025;-78
2021/01/12 01:57:09;;;;;;;24.63;10.70;;;-2.50;99.90;;;;;;5069689;28;20056;-77
2021/01/12 01:59:34;;;;;;;24.20;10.75;;;-2.50;99.90;;;;;;5048212;28;20060;-77
2021/01/12 02:02:00;;;;;;;26.15;10.18;;;-2.40;99.90;;;;;;5070096;28;20045;-77
2021/01/12 02:04:36;;;;;;;25.17;9.98;;;-2.40;99.90;;;;;;5041583;28;20123;-77
2021/01/12 02:07:03;;;;;;;23.00;10.40;;;-2.40;99.90;;;;;;5070941;28;20592;-77
2021/01/12 02:09:43;;;;;;;23.88;10.30;;;-2.40;99.90;;;;;;5062070;28;20029;-77
2021/01/12 02:12:15;;;;;;;26.73;10.15;;;-2.40;99.90;;;;;;5063813;28;20043;-77
2021/01/12 02:14:44;;;;;;;25.88;10.88;;;-2.40;99.90;;;;;;5070261;28;20032;-77
2021/01/12 02:17:10;;;;;;;25.10;9.27;;;-2.30;99.90;;;;;;5084927;28;20112;-77
2021/01/12 02:19:37;;;;;;;25.10;9.77;;;-2.30;99.90;;;;;;5083703;28;20108;-77
2021/01/12 02:22:06;;;;;;;27.13;9.65;;;-2.30;99.90;;;;;;5064891;28;20020;-77
2021/01/12 02:24:34;;;;;;;25.10;10.02;;;-2.20;99.90;;;;;;5069648;28;20024;-77
2021/01/12 02:27:00;;;;;;;22.88;9.85;;;-2.20;99.90;;;;;;5053068;28;20449;-77
2021/01/12 02:29:26;;;;;;;20.35;8.73;;;-2.20;99.90;;;;;;5058193;28;20108;-77
2021/01/12 02:31:52;;;;;;;26.23;11.00;;;-2.20;99.90;;;;;;5066345;28;20111;-77
2021/01/12 02:34:19;;;;;;;21.73;9.32;;;-2.20;99.90;;;;;;5071204;28;20037;-77
2021/01/12 02:36:46;;;;;;;21.95;9.45;;;-2.20;99.90;;;;;;5068580;28;20029;-77
2021/01/12 02:39:13;;;;;;;27.13;10.82;;;-2.20;99.90;;;;;;5067361;28;20060;-77
2021/01/12 02:41:39;;;;;;;26.00;10.13;;;-2.10;99.90;;;;;;5050698;28;20063;-77
2021/01/12 02:44:05;;;;;;;26.65;10.85;;;-2.10;99.90;;;;;;5069461;28;20029;-78
2021/01/12 02:46:31;;;;;;;24.38;10.52;;;-2.10;99.90;;;;;;5083988;28;20032;-77
2021/01/12 02:48:58;;;;;;;20.42;8.65;;;-2.10;99.90;;;;;;5049110;28;20487;-77
2021/01/12 02:51:23;;;;;;;20.77;9.63;;;-2.10;99.90;;;;;;5071062;28;20021;-77
2021/01/12 02:53:49;;;;;;;23.50;9.07;;;-2.10;99.90;;;;;;5072506;28;20024;-77
2021/01/12 02:56:25;;;;;;;23.02;9.50;;;-2.10;99.90;;;;;;5069538;28;20028;-77
2021/01/12 02:58:51;;;;;;;25.27;10.13;;;-2.10;99.90;;;;;;5068525;28;20577;-77
2021/01/12 03:01:17;;;;;;;26.10;9.93;;;-2.10;99.90;;;;;;5069530;28;20020;-76
2021/01/12 03:03:42;;;;;;;23.98;9.77;;;-2.10;99.90;;;;;;5071951;28;20029;-77
2021/01/12 03:06:08;;;;;;;23.80;10.68;;;-2.10;99.90;;;;;;5073353;28;20475;-77
2021/01/12 03:08:34;;;;;;;20.45;9.68;;;-2.10;99.90;;;;;;5071364;28;20093;-77
2021/01/12 03:11:00;;;;;;;18.45;8.60;;;-2.00;99.90;;;;;;5071118;28;20047;-77
2021/01/12 03:13:26;;;;;;;20.48;9.10;;;-2.00;99.90;;;;;;5071095;28;20111;-76
2021/01/12 03:15:51;;;;;;;20.58;9.18;;;-2.00;99.90;;;;;;5054350;28;20391;-77
2021/01/12 03:18:17;;;;;;;21.67;8.75;;;-2.00;99.90;;;;;;5072472;28;20373;-77
2021/01/12 03:20:43;;;;;;;21.80;8.43;;;-2.00;99.90;;;;;;5071140;28;20074;-77
2021/01/12 03:23:09;;;;;;;21.20;8.88;;;-2.00;99.90;;;;;;5066111;28;20044;-76
2021/01/12 03:25:34;;;;;;;20.73;8.55;;;-1.90;99.90;;;;;;5077661;28;20032;-77
2021/01/12 03:28:00;;;;;;;19.65;7.93;;;-1.90;99.90;;;;;;5062777;28;20036;-77
2021/01/12 03:30:26;;;;;;;24.52;9.70;;;-1.90;99.90;;;;;;5067033;28;20047;-77
2021/01/12 03:32:52;;;;;;;18.15;8.60;;;-1.90;99.90;;;;;;5089706;28;20039;-77
2021/01/12 03:35:19;;;;;;;18.08;8.13;;;-1.90;99.90;;;;;;5083972;28;20033;-77
2021/01/12 03:37:45;;;;;;;18.75;7.82;;;-1.80;99.90;;;;;;5074434;28;20554;-77
2021/01/12 03:40:11;;;;;;;16.25;7.78;;;-1.80;99.90;;;;;;5074799;28;20033;-76
2021/01/12 03:42:38;;;;;;;20.23;9.23;;;-1.80;99.90;;;;;;5079151;28;20029;-77
2021/01/12 03:45:04;;;;;;;17.52;8.18;;;-1.80;99.90;;;;;;5085685;28;20091;-77
2021/01/12 03:47:30;;;;;;;26.73;10.63;;;-1.70;99.90;;;;;;5075621;28;20618;-77
2021/01/12 03:49:56;;;;;;;15.95;7.63;;;-1.70;99.90;;;;;;5070074;28;20037;-76
2021/01/12 03:52:22;;;;;;;16.63;7.72;;;-1.70;99.90;;;;;;5071328;28;20025;-77
2021/01/12 03:54:48;;;;;;;18.65;8.45;;;-1.60;99.90;;;;;;5068123;28;20032;-77
2021/01/12 03:57:13;;;;;;;16.10;8.18;;;-1.60;99.90;;;;;;5083760;28;20035;-77
2021/01/12 03:59:39;;;;;;;19.83;8.45;;;-1.50;99.90;;;;;;5080230;28;20115;-77
2021/01/12 04:02:05;;;;;;;17.38;7.93;;;-1.50;99.90;;;;;;5091080;28;20032;-77
2021/01/12 04:04:30;;;;;;;16.55;7.95;;;-1.50;99.90;;;;;;5084324;28;20021;-76
2021/01/12 04:06:56;;;;;;;15.75;7.47;;;-1.50;99.90;;;;;;5072172;28;20051;-77
2021/01/12 04:09:23;;;;;;;13.40;7.30;;;-1.40;99.90;;;;;;5070004;28;20519;-76
2021/01/12 04:11:49;;;;;;;17.38;7.18;;;-1.50;99.90;;;;;;5052850;28;20037;-77
2021/01/12 04:14:15;;;;;;;13.68;7.13;;;-1.40;99.90;;;;;;5053260;28;20132;-76
2021/01/12 04:16:41;;;;;;;16.98;7.68;;;-1.40;99.90;;;;;;5070243;28;20028;-77
2021/01/12 04:19:07;;;;;;;14.93;7.28;;;-1.40;99.90;;;;;;5053389;28;20036;-77
2021/01/12 04:21:33;;;;;;;15.20;7.22;;;-1.40;99.90;;;;;;5070903;28;20028;-77
2021/01/12 04:23:59;;;;;;;15.50;7.50;;;-1.30;99.90;;;;;;5070437;28;20055;-77
2021/01/12 04:26:25;;;;;;;15.40;7.95;;;-1.30;99.90;;;;;;5071530;28;20044;-76
2021/01/12 04:28:51;;;;;;;15.80;6.85;;;-1.30;99.90;;;;;;5071071;28;20033;-77
2021/01/12 04:31:16;;;;;;;15.27;6.68;;;-1.30;99.90;;;;;;5069420;28;20120;-77
2021/01/12 04:33:42;;;;;;;15.20;7.53;;;-1.20;99.90;;;;;;5070139;28;20032;-77
2021/01/12 04:36:08;;;;;;;16.70;7.25;;;-1.20;99.90;;;;;;5071441;28;20095;-77
2021/01/12 04:38:33;;;;;;;11.05;5.88;;;-1.10;99.90;;;;;;5070664;28;20082;-77
2021/01/12 04:40:59;;;;;;;15.15;7.55;;;-1.10;99.90;;;;;;5068833;28;20037;-77
2021/01/12 04:43:25;;;;;;;12.98;6.80;;;-1.10;99.90;;;;;;5070971;28;20032;-77
2021/01/12 04:45:51;;;;;;;16.05;7.07;;;-1.10;99.90;;;;;;5070063;28;20138;-77
2021/01/12 04:48:17;;;;;;;14.20;6.65;;;-1.10;99.90;;;;;;5052784;28;20123;-77
2021/01/12 04:50:42;;;;;;;11.93;6.80;;;-1.10;99.90;;;;;;5070210;28;20032;-77
2021/01/12 04:53:08;;;;;;;16.63;6.40;;;-1.00;99.90;;;;;;5071094;28;20113;-77
2021/01/12 04:55:34;;;;;;;12.77;6.95;;;-1.00;99.90;;;;;;5078078;28;20037;-77
2021/01/12 04:58:00;;;;;;;13.07;6.75;;;-0.90;99.90;;;;;;5089340;28;20047;-78
2021/01/12 05:00:32;;;;;;;13.02;6.93;;;-0.90;99.90;;;;;;5072069;28;20043;-77
2021/01/12 05:03:06;;;;;;;16.15;7.03;;;-0.90;99.90;;;;;;5063906;28;20037;-77
2021/01/12 05:05:36;;;;;;;16.50;6.53;;;-0.90;99.90;;;;;;5066460;28;20048;-77
2021/01/12 05:08:10;;;;;;;13.70;7.13;;;-0.90;99.90;;;;;;5068642;28;20104;-77
2021/01/12 05:10:43;;;;;;;12.23;6.10;;;-0.90;99.90;;;;;;5068391;28;20399;-78
2021/01/12 05:13:13;;;;;;;14.77;6.90;;;-0.80;99.90;;;;;;5070392;28;20072;-77
2021/01/12 05:15:47;;;;;;;13.02;7.18;;;-0.80;99.90;;;;;;5068024;28;20033;-78
2021/01/12 05:18:17;;;;;;;17.05;7.40;;;-0.80;99.90;;;;;;5070259;28;20517;-78
2021/01/12 05:20:44;;;;;;;15.80;6.43;;;-0.80;99.90;;;;;;5069283;28;20036;-77
2021/01/12 05:23:19;;;;;;;15.93;6.75;;;-0.80;99.90;;;;;;5070821;28;20027;-77
2021/01/12 05:25:48;;;;;;;11.35;6.47;;;-0.80;99.90;;;;;;5068453;28;20029;-78
2021/01/12 05:28:14;;;;;;;13.20;6.55;;;-0.80;99.90;;;;;;5070010;28;20121;-77
2021/01/12 05:30:40;;;;;;;11.23;6.18;;;-0.80;99.90;;;;;;5069577;28;20632;-77
2021/01/12 05:33:05;;;;;;;11.15;5.80;;;-0.70;99.90;;;;;;5070514;28;20086;-77
2021/01/12 05:35:35;;;;;;;11.35;5.82;;;-0.70;99.90;;;;;;5069368;28;20036;-78
2021/01/12 05:38:10;;;;;;;14.48;6.93;;;-0.60;99.90;;;;;;5070235;28;20028;-77
2021/01/12 05:40:41;;;;;;;13.63;7.68;;;-0.60;99.90;;;;;;5051729;28;20029;-77
2021/01/12 05:43:12;;;;;;;11.45;6.95;;;-0.60;99.90;;;;;;5068998;28;20471;-77
2021/01/12 05:45:39;;;;;;;13.73;6.78;;;-0.60;99.90;;;;;;5070325;28;20090;-77
2021/01/12 05:48:06;;;;;;;14.32;6.75;;;-0.60;99.90;;;;;;5052218;28;20035;-78
2021/01/12 05:50:33;;;;;;;14.40;6.85;;;-0.60;99.90;;;;;;5051855;28;20402;-78
2021/01/12 05:53:03;;;;;;;12.73;7.13;;;-0.60;99.90;;;;;;5070450;28;20032;-77
2021/01/12 05:55:36;;;;;;;15.77;6.85;;;-0.60;99.90;;;;;;5067057;28;20052;-77
2021/01/12 05:58:10;;;;;;;14.50;7.60;;;-0.60;99.90;;;;;;5074525;28;20036;-77
2021/01/12 06:00:40;;;;;;;11.27;6.32;;;-0.60;99.90;;;;;;5081370;28;20040;-76
2021/01/12 06:03:07;;;;;;;12.60;6.65;;;-0.60;99.90;;;;;;5074605;28;20051;-78
2021/01/12 06:05:33;;;;;;;14.38;7.03;;;-0.60;99.90;;;;;;5062388;28;20028;-77
2021/01/12 06:07:59;;;;;;;11.18;6.32;;;-0.60;99.90;;;;;;5059099;28;20079;-76
2021/01/12 06:10:27;;;;;;;15.90;6.88;;;-0.60;99.90;;;;;;5048934;28;20037;-77
2021/01/12 06:13:00;;;;;;;13.02;6.53;;;-0.60;99.90;;;;;;5057553;28;20041;-77
2021/01/12 06:15:27;;;;;;;12.43;6.45;;;-0.60;99.90;;;;;;5050229;28;20108;-76
2021/01/12 06:18:04;;;;;;;13.77;6.47;;;-0.60;99.90;;;;;;5048837;28;20040;-77
2021/01/12 06:20:56;;;;;;;13.57;6.47;;;-0.60;99.90;;;;;;5048973;28;20033;-77
2021/01/12 06:23:39;;;;;;;12.23;5.95;;;-0.60;99.90;;;;;;5050087;28;20090;-77
2021/01/12 06:26:07;;;;;;;11.95;5.85;;;-0.60;99.90;;;;;;5032241;28;20037;-77
2021/01/12 06:28:33;;;;;;;10.82;5.57;;;-0.60;99.90;;;;;;5048128;28;20037;-77
2021/01/12 06:30:59;;;;;;;11.40;6.32;;;-0.60;99.90;;;;;;5048306;28;20079;-77
2021/01/12 06:33:24;;;;;;;12.18;5.70;;;-0.60;99.90;;;;;;5066220;28;20403;-77
2021/01/12 06:35:51;;;;;;;10.75;4.95;;;-0.60;99.90;;;;;;5070038;28;20029;-77
2021/01/12 06:38:20;;;;;;;10.15;5.25;;;-0.60;99.90;;;;;;5055356;28;20043;-77
2021/01/12 06:40:57;;;;;;;9.98;5.22;;;-0.60;99.90;;;;;;5072827;28;20041;-78
2021/01/12 06:43:28;;;;;;;10.35;5.68;;;-0.60;99.90;;;;;;5072323;28;20016;-77
2021/01/12 06:45:55;;;;;;;11.35;5.35;;;-0.60;99.90;;;;;;5073709;28;20663;-77
2021/01/12 06:48:21;;;;;;;11.63;5.90;;;-0.50;99.90;;;;;;5055469;28;20082;-78
2021/01/12 06:50:47;;;;;;;8.15;4.20;;;-0.50;99.90;;;;;;5072571;28;20521;-79
2021/01/12 06:53:13;;;;;;;8.00;4.50;;;-0.60;99.90;;;;;;5056311;28;20067;-78
2021/01/12 06:55:40;;;;;;;10.23;5.03;;;-0.50;99.90;;;;;;5052576;28;20043;-78
2021/01/12 06:58:09;;;;;;;10.88;4.80;;;-0.50;99.90;;;;;;5068953;28;20420;-78
2021/01/12 07:00:37;;;;;;;11.27;4.70;;;-0.50;99.90;;;;;;5072447;28;20024;-79
2021/01/12 07:03:04;;;;;;;9.70;5.25;;;-0.40;99.90;;;;;;5081413;28;20020;-77
2021/01/12 07:05:38;;;;;;;9.63;5.25;;;-0.40;99.90;;;;;;5048489;28;20040;-78
2021/01/12 07:08:11;;;;;;;8.25;4.38;;;-0.40;99.90;;;;;;5052767;28;20116;-78
2021/01/12 07:10:44;;;;;;;9.00;4.70;;;-0.30;99.90;;;;;;5057115;28;20029;-77
2021/01/12 07:13:10;;;;;;;7.18;3.90;;;-0.30;99.90;;;;;;5062694;28;20399;-77
2021/01/12 07:15:47;;;;;;;8.48;4.32;;;-0.30;99.90;;;;;;5072996;28;20525;-77
2021/01/12 07:18:13;;;;;;;9.30;3.85;;;-0.30;99.90;;;;;;5069449;28;20174;-77
2021/01/12 07:20:40;;;;;;;7.93;4.30;;;-0.30;99.90;;;;;;5068731;28;20140;-78
2021/01/12 07:23:12;;;;;;;6.95;3.97;;;-0.30;99.90;;;;;;5073685;28;20024;-77
2021/01/12 07:25:40;;;;;;;7.43;4.10;;;-0.20;99.90;;;;;;5065619;28;20488;-77
2021/01/12 07:28:14;;;;;;;7.22;3.90;;;-0.30;99.90;;;;;;5071690;28;20036;-78
2021/01/12 07:30:46;;;;;;;8.15;3.80;;;-0.30;99.90;;;;;;5060835;28;20059;-76
2021/01/12 07:33:19;;;;;;;7.70;3.70;;;-0.30;99.90;;;;;;5053132;28;20037;-76
2021/01/12 07:35:50;;;;;;;6.60;3.63;;;-0.20;99.90;;;;;;5066631;28;20032;-75
2021/01/12 07:38:22;;;;;;;8.32;4.03;;;-0.20;99.90;;;;;;5067161;28;20462;-75
2021/01/12 07:40:49;;;;;;;6.85;3.90;;;-0.20;99.90;;;;;;5060659;28;20044;-76
2021/01/12 07:43:20;;;;;;;8.40;4.63;;;-0.20;99.90;;;;;;5069952;28;20013;-75
2021/01/12 07:45:46;;;;;;;8.60;3.90;;;-0.20;99.90;;;;;;5075654;28;20099;-75
2021/01/12 07:48:14;;;;;;;6.88;3.65;;;-0.20;99.90;;;;;;5071654;28;20039;-76
2021/01/12 07:50:46;;;;;;;6.47;3.88;;;-0.10;99.90;;;;;;5071526;28;20041;-77
2021/01/12 07:53:15;;;;;;;6.57;3.53;;;-0.10;99.90;;;;;;5072303;28;20105;-76
2021/01/12 07:55:43;;;;;;;5.95;3.90;;;-0.10;99.90;;;;;;5072254;28;20036;-76
2021/01/12 07:58:10;;;;;;;5.97;3.78;;;-0.20;99.90;;;;;;5070202;28;20488;-76
2021/01/12 08:00:36;;;;;;;5.90;3.17;;;-0.10;99.90;;;;;;5035913;28;20040;-76
2021/01/12 08:03:04;;;;;;;6.32;3.35;;;-0.10;99.90;;;;;;5063421;28;20035;-75
2021/01/12 08:05:30;;;;;;;8.32;3.83;;;-0.10;99.90;;;;;;5045838;28;20128;-76
2021/01/12 08:08:10;;;;;;;5.95;3.45;;;-0.10;99.90;;;;;;5050528;28;20032;-76
2021/01/12 08:10:39;;;;;;;5.80;2.60;;;-0.10;99.90;;;;;;5068294;28;20040;-76
2021/01/12 08:13:07;;;;;;;4.60;2.53;;;-0.10;99.90;;;;;;5071132;28;20036;-76
2021/01/12 08:15:35;;;;;;;5.68;2.97;;;-0.10;99.90;;;;;;5065458;28;20029;-75
2021/01/12 08:18:04;;;;;;;4.43;2.58;;;0.00;99.90;;;;;;5050297;28;20047;-76
2021/01/12 08:20:30;;;;;;;3.83;2.53;;;0.00;99.90;;;;;;5068607;28;20050;-75
2021/01/12 08:22:57;;;;;;;4.32;2.35;;;0.00;99.90;;;;;;5067309;28;20024;-75
2021/01/12 08:25:24;;;;;;;4.72;2.50;;;0.00;99.90;;;;;;5072176;28;20399;-76
2021/01/12 08:27:52;;;;;;;4.65;2.75;;;0.10;99.90;;;;;;5070072;28;20033;-75
2021/01/12 08:30:20;;;;;;;4.32;2.45;;;0.10;99.90;;;;;;5074120;28;20067;-76
2021/01/12 08:32:56;;;;;;;5.35;3.00;;;0.10;99.90;;;;;;5073641;28;20093;-76
2021/01/12 08:35:26;;;;;;;4.80;2.72;;;0.20;99.90;;;;;;5076347;28;20024;-75
2021/01/12 08:37:53;;;;;;;3.88;2.40;;;0.20;99.90;;;;;;5071120;28;20032;-76
2021/01/12 08:40:19;;;;;;;4.05;2.40;;;0.20;99.90;;;;;;5071777;28;20033;-76
2021/01/12 08:42:47;;;;;;;3.30;2.33;;;0.20;99.90;;;;;;5072244;28;20032;-78
2021/01/12 08:45:17;;;;;;;4.40;2.00;;;0.20;99.90;;;;;;5064424;28;20029;-77
2021/01/12 08:47:45;;;;;;;3.65;1.92;;;0.30;99.90;;;;;;5065196;28;20039;-76
2021/01/12 08:50:12;;;;;;;2.03;1.58;;;0.30;99.90;;;;;;5061687;28;20037;-76
2021/01/12 08:52:40;;;;;;;2.38;1.50;;;0.30;99.90;;;;;;5060403;28;20039;-76
2021/01/12 08:55:20;;;;;;;2.45;1.70;;;0.40;99.90;;;;;;5063039;28;20050;-76
2021/01/12 08:58:00;;;;;;;2.10;1.50;;;0.40;99.90;;;;;;5066165;28;20086;-75
2021/01/12 09:00:44;;;;;;;2.30;0.90;;;0.40;99.90;;;;;;5060706;28;20496;-74
2021/01/12 09:03:13;;;;;;;3.75;2.10;;;0.40;99.90;;;;;;5064480;28;20036;-77
2021/01/12 09:05:41;;;;;;;3.00;1.48;;;0.50;99.90;;;;;;5061619;28;20182;-77
2021/01/12 09:08:11;;;;;;;2.45;1.67;;;0.50;99.90;;;;;;5045484;28;20032;-77
2021/01/12 09:10:39;;;;;;;2.95;1.88;;;0.50;99.90;;;;;;5063023;28;20044;-76
2021/01/12 09:13:06;;;;;;;2.80;1.40;;;0.50;99.90;;;;;;5055583;28;20033;-76
2021/01/12 09:15:40;;;;;;;1.85;1.20;;;0.50;99.90;;;;;;5062154;28;20495;-77
2021/01/12 09:18:19;;;;;;;3.33;1.70;;;0.50;99.90;;;;;;5046145;28;20036;-77
2021/01/12 09:20:53;;;;;;;2.20;1.40;;;0.50;99.90;;;;;;5066259;28;20540;-76
2021/01/12 09:23:19;;;;;;;2.65;1.80;;;0.50;99.90;;;;;;5070259;28;20035;-76
2021/01/12 09:26:01;;;;;;;2.10;1.50;;;0.60;99.90;;;;;;5065563;28;20766;-76
2021/01/12 09:28:32;;;;;;;2.13;1.38;;;0.60;99.90;;;;;;5067986;28;20075;-77
2021/01/12 09:31:09;;;;;;;2.00;1.52;;;0.60;99.90;;;;;;5059718;28;20457;-77
2021/01/12 09:33:37;;;;;;;1.90;1.15;;;0.60;99.90;;;;;;5065514;28;20036;-76
2021/01/12 09:36:03;;;;;;;2.17;1.52;;;0.60;99.90;;;;;;5059733;28;20028;-76
2021/01/12 09:38:46;;;;;;;2.72;1.55;;;0.60;99.90;;;;;;5065076;28;20491;-77
2021/01/12 09:41:16;;;;;;;2.80;1.48;;;0.60;99.90;;;;;;5056732;28;20071;-76
2021/01/12 09:43:43;;;;;;;1.80;1.23;;;0.70;99.90;;;;;;5059709;28;20052;-77
2021/01/12 09:46:10;;;;;;;1.90;1.50;;;0.70;99.90;;;;;;5071602;28;20020;-76
2021/01/12 09:48:37;;;;;;;2.42;1.58;;;0.60;99.90;;;;;;5068938;28;20033;-76
2021/01/12 09:51:04;;;;;;;3.08;1.75;;;0.60;99.90;;;;;;5067701;28;20016;-77
2021/01/12 09:53:29;;;;;;;2.47;1.48;;;0.70;99.90;;;;;;5070843;28;20029;-77
2021/01/12 09:55:58;;;;;;;1.70;1.23;;;0.70;99.90;;;;;;5064339;28;20460;-77
2021/01/12 09:58:25;;;;;;;1.85;1.30;;;0.70;99.90;;;;;;5063462;28;20116;-78
2021/01/12 10:00:51;;;;;;;2.08;1.50;;;0.70;99.90;;;;;;5045412;28;20028;-76
2021/01/12 10:03:17;;;;;;;3.25;1.75;;;0.70;99.90;;;;;;5062427;28;20086;-77
2021/01/12 10:05:43;;;;;;;1.30;1.10;;;0.70;99.90;;;;;;5066011;28;20170;-77
2021/01/12 10:08:09;;;;;;;2.83;1.70;;;0.70;99.90;;;;;;5064642;28;20521;-77
2021/01/12 10:10:35;;;;;;;2.47;1.45;;;0.80;99.90;;;;;;5066622;28;20024;-78
2021/01/12 10:13:02;;;;;;;1.90;1.42;;;0.70;99.90;;;;;;5076645;28;20024;-77
2021/01/12 10:15:28;;;;;;;3.22;1.55;;;0.80;99.90;;;;;;5072633;28;20037;-77
2021/01/12 10:17:53;;;;;;;2.38;1.75;;;0.80;99.90;;;;;;5072482;28;20047;-78
2021/01/12 10:20:19;;;;;;;1.88;1.20;;;0.70;99.90;;;;;;5070011;28;20051;-78
2021/01/12 10:22:45;;;;;;;2.72;1.33;;;0.80;99.90;;;;;;5073222;28;20028;-77
2021/01/12 10:25:12;;;;;;;3.22;1.60;;;0.80;99.90;;;;;;5074255;28;20028;-78
2021/01/12 10:27:38;;;;;;;2.47;1.30;;;0.80;99.90;;;;;;5086413;28;20085;-78
2021/01/12 10:30:09;;;;;;;2.17;1.50;;;0.80;99.90;;;;;;5058760;28;20028;-77
2021/01/12 10:32:35;;;;;;;1.92;1.20;;;0.80;99.90;;;;;;5077739;28;20041;-83
2021/01/12 10:35:01;;;;;;;1.88;1.40;;;0.80;99.90;;;;;;5036466;28;20039;-79
2021/01/12 10:37:27;;;;;;;2.25;1.55;;;0.80;99.90;;;;;;5070168;28;20487;-79
2021/01/12 10:39:55;;;;;;;2.20;1.17;;;0.80;99.90;;;;;;5052269;28;20066;-80
2021/01/12 10:42:21;;;;;;;2.30;1.55;;;0.80;99.90;;;;;;5070261;28;20035;-79
2021/01/12 10:44:47;;;;;;;4.15;1.95;;;0.80;99.90;;;;;;5052340;28;20451;-78
2021/01/12 10:47:12;;;;;;;2.55;1.65;;;0.80;99.90;;;;;;5069428;28;20067;-80
2021/01/12 10:49:39;;;;;;;1.63;1.23;;;0.80;99.90;;;;;;5067857;28;20036;-79
2021/01/12 10:52:08;;;;;;;3.03;1.60;;;0.90;99.90;;;;;;5069039;28;20479;-77
2021/01/12 10:54:36;;;;;;;2.13;1.50;;;0.90;99.90;;;;;;5052315;28;20037;-79
2021/01/12 10:57:03;;;;;;;2.67;1.75;;;0.90;99.90;;;;;;5070536;28;20086;-79
2021/01/12 10:59:29;;;;;;;3.03;1.65;;;0.90;99.90;;;;;;5068742;28;20036;-78
2021/01/12 11:02:01;;;;;;;1.70;1.48;;;0.90;99.90;;;;;;5068195;28;20031;-79
2021/01/12 11:04:27;;;;;;;2.55;1.40;;;0.90;99.90;;;;;;5070383;28;20032;-77
2021/01/12 11:06:55;;;;;;;2.00;1.48;;;0.90;99.90;;;;;;5070547;28;20078;-76
2021/01/12 11:09:22;;;;;;;2.45;1.80;;;0.90;99.90;;;;;;5068259;28;20028;-78
2021/01/12 11:11:48;;;;;;;3.15;1.92;;;0.90;99.90;;;;;;5079918;28;20401;-77
2021/01/12 11:14:18;;;;;;;2.15;1.70;;;0.90;99.90;;;;;;5089867;28;20346;-79
2021/01/12 11:16:46;;;;;;;2.95;1.70;;;0.90;99.90;;;;;;5090310;28;20036;-77
2021/01/12 11:19:13;;;;;;;2.40;1.27;;;0.90;99.90;;;;;;5090091;28;20426;-78
2021/01/12 11:21:46;;;;;;;3.03;1.60;;;0.90;99.90;;;;;;5071248;28;20052;-78
2021/01/12 11:24:14;;;;;;;1.63;1.13;;;0.90;99.90;;;;;;5088416;28;20032;-78
2021/01/12 11:26:42;;;;;;;2.33;1.33;;;0.90;99.90;;;;;;5089568;28;20035;-77
2021/01/12 11:29:08;;;;;;;2.15;1.10;;;0.90;99.90;;;;;;5089836;28;20024;-80
2021/01/12 11:31:35;;;;;;;2.75;1.27;;;0.90;99.90;;;;;;5088407;28;20117;-77
2021/01/12 11:34:01;;;;;;;2.80;1.40;;;0.90;99.90;;;;;;5071583;28;20024;-78
2021/01/12 11:36:35;;;;;;;2.22;1.30;;;0.90;99.90;;;;;;5071945;28;20105;-80
2021/01/12 11:39:03;;;;;;;2.75;1.50;;;1.00;99.90;;;;;;5082809;28;20029;-80
2021/01/12 11:41:29;;;;;;;3.00;1.10;;;1.00;99.90;;;;;;5051498;28;20608;-78
2021/01/12 11:43:55;;;;;;;2.15;1.40;;;0.90;99.90;;;;;;5068917;28;20033;-79
2021/01/12 11:46:31;;;;;;;1.98;1.35;;;0.90;99.90;;;;;;5068568;28;20020;-77
2021/01/12 11:48:58;;;;;;;1.30;1.05;;;0.90;99.90;;;;;;5051417;28;20040;-78
2021/01/12 11:51:44;;;;;;;1.38;1.05;;;0.90;99.90;;;;;;5068357;28;20639;-78
2021/01/12 11:54:10;;;;;;;1.30;0.85;;;0.90;99.90;;;;;;5075742;28;20490;-77
2021/01/12 11:56:36;;;;;;;1.55;1.02;;;0.90;99.90;;;;;;5056842;28;20036;-78
2021/01/12 11:59:03;;;;;;;1.20;0.80;;;1.00;99.90;;;;;;5082774;28;20024;-78
2021/01/12 12:01:29;;;;;;;1.45;0.80;;;1.00;99.90;;;;;;5079829;28;20033;-77
2021/01/12 12:03:55;;;;;;;1.27;1.02;;;1.00;99.90;;;;;;5056036;28;20120;-77
2021/01/12 12:06:21;;;;;;;1.73;0.90;;;1.00;99.90;;;;;;5067261;28;20025;-76
2021/01/12 12:08:47;;;;;;;0.93;0.65;;;1.00;99.90;;;;;;5064598;28;20065;-77
2021/01/12 12:11:13;;;;;;;1.05;0.80;;;1.00;99.90;;;;;;5064166;28;20047;-77
2021/01/12 12:13:41;;;;;;;0.73;0.57;;;1.10;99.90;;;;;;5066750;28;20032;-78
2021/01/12 12:16:14;;;;;;;1.17;0.80;;;1.10;99.90;;;;;;5051361;28;20047;-79
2021/01/12 12:18:41;;;;;;;1.20;0.85;;;1.10;99.90;;;;;;5069323;28;20085;-79
2021/01/12 12:21:15;;;;;;;0.60;0.40;;;1.10;99.90;;;;;;5064360;28;20020;-78
2021/01/12 12:23:42;;;;;;;0.90;0.60;;;1.10;99.90;;;;;;5073485;28;20025;-79
2021/01/12 12:26:15;;;;;;;0.90;0.60;;;1.10;99.90;;;;;;5063320;28;20037;-77
2021/01/12 12:28:42;;;;;;;0.50;0.50;;;1.10;99.90;;;;;;5062929;28;20033;-77
2021/01/12 12:31:12;;;;;;;0.88;0.50;;;1.10;99.90;;;;;;5061616;28;20702;-76
2021/01/12 12:33:39;;;;;;;0.30;0.30;;;1.10;99.90;;;;;;5053303;28;20036;-76
2021/01/12 12:36:07;;;;;;;0.55;0.30;;;1.10;99.90;;;;;;5064818;28;20117;-78
2021/01/12 12:38:35;;;;;;;0.30;0.30;;;1.10;99.90;;;;;;5060331;28;20024;-77
2021/01/12 12:41:06;;;;;;;0.45;0.30;;;1.10;99.90;;;;;;5057847;28;20044;-77
2021/01/12 12:43:32;;;;;;;0.32;0.20;;;1.10;99.90;;;;;;5056595;28;20082;-77
2021/01/12 12:45:58;;;;;;;0.30;0.30;;;1.10;99.90;;;;;;5060573;28;20116;-77
2021/01/12 12:48:23;;;;;;;0.30;0.20;;;1.10;99.90;;;;;;5057707;28;20029;-77